Terminal Aerodrome Forecast
Issued by NWS

Home | Current Version | Previous Version | Text Only | Print | Product List | Glossary On
Versions: 1 2 3 4 5 6 7 8 9 10 11 12 13 14 15 16 17 18 19 20 21
000
FTUS43 KIND 210520
TAFBMG
TAF
KBMG 210520Z 2106/2206 19011G20KT P6SM BKN050 OVC090 WS020/20045KT
     FM210700 22011G19KT 6SM SHRA OVC020
     FM210800 27010KT 3SM SHRA OVC010
     FM210900 30009KT 4SM SHRA OVC008
     FM211800 02008KT P6SM -SHRA OVC010
     FM220000 03008KT 6SM SHRA OVC020
      AMD LTD TO CLD VIS AND WIND TIL 211400=

USA.gov is the U.S. government's official web portal to all federal, state and local government web resources and services.